sensor_id;sensor_type;location;lat;lon;timestamp;pressure;altitude;pressure_sealevel;temperature;humidity
2875;BME280;1445;52.600;13.328;2024-01-11T00:02:19;81372.47;;;-145.99;100.00
2875;BME280;1445;52.600;13.328;2024-01-11T00:04:44;81395.59;;;-145.99;100.00
2875;BME280;1445;52.600;13.328;2024-01-11T00:07:10;81397.72;;;-145.99;100.00
2875;BME280;1445;52.600;13.328;2024-01-11T00:09:41;81374.56;;;-145.99;100.00
2875;BME280;1445;52.600;13.328;2024-01-11T00:12:07;81389.28;;;-145.99;100.00
2875;BME280;1445;52.600;13.328;2024-01-11T00:14:33;81429.25;;;-145.99;100.00
2875;BME280;1445;52.600;13.328;2024-01-11T00:16:58;81443.97;;;-145.99;100.00
2875;BME280;1445;52.600;13.328;2024-01-11T00:19:23;81467.09;;;-145.99;100.00
2875;BME280;1445;52.600;13.328;2024-01-11T00:21:49;81460.78;;;-145.99;100.00
2875;BME280;1445;52.600;13.328;2024-01-11T00:24:14;81469.19;;;-145.99;100.00
2875;BME280;1445;52.600;13.328;2024-01-11T00:26:39;81448.16;;;-145.99;100.00
2875;BME280;1445;52.600;13.328;2024-01-11T00:29:04;81433.44;;;-145.99;100.00
2875;BME280;1445;52.600;13.328;2024-01-11T00:31:30;81431.34;;;-145.99;100.00
2875;BME280;1445;52.600;13.328;2024-01-11T00:33:55;81418.72;;;-145.99;100.00
2875;BME280;1445;52.600;13.328;2024-01-11T00:36:20;81431.34;;;-145.99;100.00
2875;BME280;1445;52.600;13.328;2024-01-11T00:38:46;81460.78;;;-145.99;100.00
2875;BME280;1445;52.600;13.328;2024-01-11T00:41:12;81460.78;;;-145.99;100.00
2875;BME280;1445;52.600;13.328;2024-01-11T00:43:37;81456.59;;;-145.99;100.00
2875;BME280;1445;52.600;13.328;2024-01-11T00:46:03;81462.88;;;-145.99;100.00
2875;BME280;1445;52.600;13.328;2024-01-11T00:48:28;81460.78;;;-145.99;100.00
2875;BME280;1445;52.600;13.328;2024-01-11T00:50:53;81477.59;;;-145.99;100.00
2875;BME280;1445;52.600;13.328;2024-01-11T00:53:19;81483.91;;;-145.99;100.00
2875;BME280;1445;52.600;13.328;2024-01-11T00:55:44;81483.91;;;-145.99;100.00
2875;BME280;1445;52.600;13.328;2024-01-11T00:58:09;81469.19;;;-145.99;100.00
2875;BME280;1445;52.600;13.328;2024-01-11T01:00:34;81481.81;;;-145.99;100.00
2875;BME280;1445;52.600;13.328;2024-01-11T01:03:00;81473.41;;;-145.99;100.00
2875;BME280;1445;52.600;13.328;2024-01-11T01:05:25;81460.78;;;-145.99;100.00
2875;BME280;1445;52.600;13.328;2024-01-11T01:07:50;81469.19;;;-145.99;100.00
2875;BME280;1445;52.600;13.328;2024-01-11T01:10:16;81456.59;;;-145.99;100.00
2875;BME280;1445;52.600;13.328;2024-01-11T01:12:41;81437.66;;;-145.99;100.00
2875;BME280;1445;52.600;13.328;2024-01-11T01:15:06;81456.59;;;-145.99;100.00
2875;BME280;1445;52.600;13.328;2024-01-11T01:17:32;81448.16;;;-145.99;100.00
2875;BME280;1445;52.600;13.328;2024-01-11T01:19:57;81454.47;;;-145.99;100.00
2875;BME280;1445;52.600;13.328;2024-01-11T01:22:22;81435.56;;;-145.99;100.00
2875;BME280;1445;52.600;13.328;2024-01-11T01:24:48;81435.56;;;-145.99;100.00
2875;BME280;1445;52.600;13.328;2024-01-11T01:27:13;81435.56;;;-145.99;100.00
2875;BME280;1445;52.600;13.328;2024-01-11T01:29:38;81443.97;;;-145.99;100.00
2875;BME280;1445;52.600;13.328;2024-01-11T01:32:04;81435.56;;;-145.99;100.00
2875;BME280;1445;52.600;13.328;2024-01-11T01:34:29;81433.44;;;-145.99;100.00
2875;BME280;1445;52.600;13.328;2024-01-11T01:36:54;81435.56;;;-145.99;100.00
2875;BME280;1445;52.600;13.328;2024-01-11T01:39:20;81427.16;;;-145.99;100.00
2875;BME280;1445;52.600;13.328;2024-01-11T01:41:45;81425.03;;;-145.99;100.00
2875;BME280;1445;52.600;13.328;2024-01-11T01:44:10;81435.56;;;-145.99;100.00
2875;BME280;1445;52.600;13.328;2024-01-11T01:46:36;81418.72;;;-145.99;100.00
2875;BME280;1445;52.600;13.328;2024-01-11T01:49:01;81425.03;;;-145.99;100.00
2875;BME280;1445;52.600;13.328;2024-01-11T01:51:28;81408.22;;;-145.99;100.00
2875;BME280;1445;52.600;13.328;2024-01-11T01:53:54;81397.72;;;-145.99;100.00
2875;BME280;1445;52.600;13.328;2024-01-11T01:56:21;81389.28;;;-145.99;100.00
2875;BME280;1445;52.600;13.328;2024-01-11T01:58:47;81397.72;;;-145.99;100.00
2875;BME280;1445;52.600;13.328;2024-01-11T02:01:13;81387.19;;;-145.99;100.00
2875;BME280;1445;52.600;13.328;2024-01-11T02:03:39;81385.09;;;-145.99;100.00
2875;BME280;1445;52.600;13.328;2024-01-11T02:06:05;81370.38;;;-145.99;100.00
2875;BME280;1445;52.600;13.328;2024-01-11T02:08:30;81347.25;;;-145.99;100.00
2875;BME280;1445;52.600;13.328;2024-01-11T02:10:57;81336.72;;;-145.99;100.00
2875;BME280;1445;52.600;13.328;2024-01-11T02:13:22;81317.81;;;-145.99;100.00
2875;BME280;1445;52.600;13.328;2024-01-11T02:15:48;81300.97;;;-145.99;100.00
2875;BME280;1445;52.600;13.328;2024-01-11T02:18:13;81265.25;;;-145.99;100.00
2875;BME280;1445;52.600;13.328;2024-01-11T02:20:39;81275.75;;;-145.99;100.00
2875;BME280;1445;52.600;13.328;2024-01-11T02:23:08;81279.97;;;-145.99;100.00
2875;BME280;1445;52.600;13.328;2024-01-11T02:25:37;81288.38;;;-145.99;100.00
2875;BME280;1445;52.600;13.328;2024-01-11T02:28:02;81275.75;;;-145.99;100.00
2875;BME280;1445;52.600;13.328;2024-01-11T02:30:27;81282.06;;;-145.99;100.00
2875;BME280;1445;52.600;13.328;2024-01-11T02:32:53;81296.78;;;-145.99;100.00
2875;BME280;1445;52.600;13.328;2024-01-11T02:35:18;81275.75;;;-145.99;100.00
2875;BME280;1445;52.600;13.328;2024-01-11T02:37:44;81319.91;;;-145.99;100.00
2875;BME280;1445;52.600;13.328;2024-01-11T02:40:10;81326.22;;;-145.99;100.00
2875;BME280;1445;52.600;13.328;2024-01-11T02:42:37;81326.22;;;-145.99;100.00
2875;BME280;1445;52.600;13.328;2024-01-11T02:45:03;81319.91;;;-145.99;100.00
2875;BME280;1445;52.600;13.328;2024-01-11T02:47:28;81334.63;;;-145.99;100.00
2875;BME280;1445;52.600;13.328;2024-01-11T02:49:53;81324.13;;;-145.99;100.00
2875;BME280;1445;52.600;13.328;2024-01-11T02:52:19;81317.81;;;-145.99;100.00
2875;BME280;1445;52.600;13.328;2024-01-11T02:54:44;81326.22;;;-145.99;100.00
2875;BME280;1445;52.600;13.328;2024-01-11T02:57:09;81345.13;;;-145.99;100.00
2875;BME280;1445;52.600;13.328;2024-01-11T02:59:35;81345.13;;;-145.99;100.00
2875;BME280;1445;52.600;13.328;2024-01-11T03:02:00;81361.97;;;-145.99;100.00
2875;BME280;1445;52.600;13.328;2024-01-11T03:04:26;81343.03;;;-145.99;100.00
2875;BME280;1445;52.600;13.328;2024-01-11T03:06:51;81336.72;;;-145.99;100.00
2875;BME280;1445;52.600;13.328;2024-01-11T03:09:17;81313.59;;;-145.99;100.00
2875;BME280;1445;52.600;13.328;2024-01-11T03:11:42;81334.63;;;-145.99;100.00
2875;BME280;1445;52.600;13.328;2024-01-11T03:14:07;81334.63;;;-145.99;100.00
2875;BME280;1445;52.600;13.328;2024-01-11T03:16:33;81336.72;;;-145.99;100.00
2875;BME280;1445;52.600;13.328;2024-01-11T03:18:59;81330.41;;;-145.99;100.00
2875;BME280;1445;52.600;13.328;2024-01-11T03:21:24;81298.88;;;-145.99;100.00
2875;BME280;1445;52.600;13.328;2024-01-11T03:23:50;81298.88;;;-145.99;100.00
2875;BME280;1445;52.600;13.328;2024-01-11T03:26:18;81300.97;;;-145.99;100.00
2875;BME280;1445;52.600;13.328;2024-01-11T03:28:43;81307.28;;;-145.99;100.00
2875;BME280;1445;52.600;13.328;2024-01-11T03:31:09;81300.97;;;-145.99;100.00
2875;BME280;1445;52.600;13.328;2024-01-11T03:33:35;81284.16;;;-145.99;100.00
2875;BME280;1445;52.600;13.328;2024-01-11T03:36:05;81279.97;;;-145.99;100.00
2875;BME280;1445;52.600;13.328;2024-01-11T03:38:31;81279.97;;;-145.99;100.00
2875;BME280;1445;52.600;13.328;2024-01-11T03:40:56;81271.56;;;-145.99;100.00
2875;BME280;1445;52.600;13.328;2024-01-11T03:43:21;81265.25;;;-145.99;100.00
2875;BME280;1445;52.600;13.328;2024-01-11T03:45:46;81267.34;;;-145.99;100.00
2875;BME280;1445;52.600;13.328;2024-01-11T03:48:12;81258.94;;;-145.99;100.00
2875;BME280;1445;52.600;13.328;2024-01-11T03:50:37;81256.84;;;-145.99;100.00
2875;BME280;1445;52.600;13.328;2024-01-11T03:53:02;81263.13;;;-145.99;100.00
2875;BME280;1445;52.600;13.328;2024-01-11T03:55:29;81267.34;;;-145.99;100.00
2875;BME280;1445;52.600;13.328;2024-01-11T03:57:54;81242.13;;;-145.99;100.00
2875;BME280;1445;52.600;13.328;2024-01-11T04:00:20;81244.22;;;-145.99;100.00
2875;BME280;1445;52.600;13.328;2024-01-11T04:02:45;81237.91;;;-145.99;100.00
2875;BME280;1445;52.600;13.328;2024-01-11T04:05:10;81233.72;;;-145.99;100.00
2875;BME280;1445;52.600;13.328;2024-01-11T04:07:35;81233.72;;;-145.99;100.00
2875;BME280;1445;52.600;13.328;2024-01-11T04:10:01;81237.91;;;-145.99;100.00
2875;BME280;1445;52.600;13.328;2024-01-11T04:12:26;81214.78;;;-145.99;100.00
2875;BME280;1445;52.600;13.328;2024-01-11T04:14:51;81216.88;;;-145.99;100.00
2875;BME280;1445;52.600;13.328;2024-01-11T04:17:16;81214.78;;;-145.99;100.00
2875;BME280;1445;52.600;13.328;2024-01-11T04:19:42;81231.59;;;-145.99;100.00
2875;BME280;1445;52.600;13.328;2024-01-11T04:22:07;81216.88;;;-145.99;100.00
2875;BME280;1445;52.600;13.328;2024-01-11T04:24:32;81195.84;;;-145.99;100.00
2875;BME280;1445;52.600;13.328;2024-01-11T04:26:58;81200.06;;;-145.99;100.00
2875;BME280;1445;52.600;13.328;2024-01-11T04:29:23;81197.97;;;-145.99;100.00
2875;BME280;1445;52.600;13.328;2024-01-11T04:31:49;81179.03;;;-145.99;100.00
2875;BME280;1445;52.600;13.328;2024-01-11T04:34:14;81200.06;;;-145.99;100.00
2875;BME280;1445;52.600;13.328;2024-01-11T04:36:39;81191.66;;;-145.99;100.00
2875;BME280;1445;52.600;13.328;2024-01-11T04:39:05;81176.94;;;-145.99;100.00
2875;BME280;1445;52.600;13.328;2024-01-11T04:41:31;81185.34;;;-145.99;100.00
2875;BME280;1445;52.600;13.328;2024-01-11T04:43:57;81183.25;;;-145.99;100.00
2875;BME280;1445;52.600;13.328;2024-01-11T04:46:22;81162.22;;;-145.99;100.00
2875;BME280;1445;52.600;13.328;2024-01-11T04:48:48;81134.88;;;-145.99;100.00
2875;BME280;1445;52.600;13.328;2024-01-11T04:51:14;81151.72;;;-145.99;100.00
2875;BME280;1445;52.600;13.328;2024-01-11T04:53:40;81153.81;;;-145.99;100.00
2875;BME280;1445;52.600;13.328;2024-01-11T04:56:08;81141.19;;;-145.99;100.00
2875;BME280;1445;52.600;13.328;2024-01-11T04:58:38;81153.81;;;-145.99;100.00
2875;BME280;1445;52.600;13.328;2024-01-11T05:01:07;81124.38;;;-145.99;100.00
2875;BME280;1445;52.600;13.328;2024-01-11T05:03:36;81134.88;;;-145.99;100.00
2875;BME280;1445;52.600;13.328;2024-01-11T05:06:01;81137.00;;;-145.99;100.00
2875;BME280;1445;52.600;13.328;2024-01-11T05:08:27;81145.41;;;-145.99;100.00
2875;BME280;1445;52.600;13.328;2024-01-11T05:10:53;81147.50;;;-145.99;100.00
2875;BME280;1445;52.600;13.328;2024-01-11T05:13:18;81118.06;;;-145.99;100.00
2875;BME280;1445;52.600;13.328;2024-01-11T05:15:44;81084.44;;;-145.99;100.00
2875;BME280;1445;52.600;13.328;2024-01-11T05:18:09;81092.84;;;-145.99;100.00
2875;BME280;1445;52.600;13.328;2024-01-11T05:20:35;81109.66;;;-145.99;100.00
2875;BME280;1445;52.600;13.328;2024-01-11T05:23:00;81097.03;;;-145.99;100.00
2875;BME280;1445;52.600;13.328;2024-01-11T05:25:26;81094.94;;;-145.99;100.00
2875;BME280;1445;52.600;13.328;2024-01-11T05:27:51;81076.00;;;-145.99;100.00
2875;BME280;1445;52.600;13.328;2024-01-11T05:30:16;81069.72;;;-145.99;100.00
2875;BME280;1445;52.600;13.328;2024-01-11T05:32:42;81073.91;;;-145.99;100.00
2875;BME280;1445;52.600;13.328;2024-01-11T05:35:07;81078.13;;;-145.99;100.00
2875;BME280;1445;52.600;13.328;2024-01-11T05:37:32;81082.31;;;-145.99;100.00
2875;BME280;1445;52.600;13.328;2024-01-11T05:39:58;81086.53;;;-145.99;100.00
2875;BME280;1445;52.600;13.328;2024-01-11T05:42:23;81080.22;;;-145.99;100.00
2875;BME280;1445;52.600;13.328;2024-01-11T05:44:50;81071.81;;;-145.99;100.00
2875;BME280;1445;52.600;13.328;2024-01-11T05:47:15;81073.91;;;-145.99;100.00
2875;BME280;1445;52.600;13.328;2024-01-11T05:49:40;81050.78;;;-145.99;100.00
2875;BME280;1445;52.600;13.328;2024-01-11T05:52:06;81061.28;;;-145.99;100.00
2875;BME280;1445;52.600;13.328;2024-01-11T05:54:31;81050.78;;;-145.99;100.00
2875;BME280;1445;52.600;13.328;2024-01-11T05:56:56;81055.00;;;-145.99;100.00
2875;BME280;1445;52.600;13.328;2024-01-11T05:59:23;81063.41;;;-145.99;100.00
2875;BME280;1445;52.600;13.328;2024-01-11T06:01:48;81073.91;;;-145.99;100.00
2875;BME280;1445;52.600;13.328;2024-01-11T06:04:13;81076.00;;;-145.99;100.00
2875;BME280;1445;52.600;13.328;2024-01-11T06:06:39;81063.41;;;-145.99;100.00
2875;BME280;1445;52.600;13.328;2024-01-11T06:09:05;81052.88;;;-145.99;100.00
2875;BME280;1445;52.600;13.328;2024-01-11T06:11:30;81031.88;;;-145.99;100.00
2875;BME280;1445;52.600;13.328;2024-01-11T06:13:55;81023.47;;;-145.99;100.00
2875;BME280;1445;52.600;13.328;2024-01-11T06:16:21;81031.88;;;-145.99;100.00
2875;BME280;1445;52.600;13.328;2024-01-11T06:18:46;81031.88;;;-145.99;100.00
2875;BME280;1445;52.600;13.328;2024-01-11T06:21:11;81027.66;;;-145.99;100.00
2875;BME280;1445;52.600;13.328;2024-01-11T06:23:37;81023.47;;;-145.99;100.00
2875;BME280;1445;52.600;13.328;2024-01-11T06:26:02;81010.84;;;-145.99;100.00
2875;BME280;1445;52.600;13.328;2024-01-11T06:28:28;81004.53;;;-145.99;100.00
2875;BME280;1445;52.600;13.328;2024-01-11T06:30:53;80996.13;;;-145.99;100.00
2875;BME280;1445;52.600;13.328;2024-01-11T06:33:18;80991.91;;;-145.99;100.00
2875;BME280;1445;52.600;13.328;2024-01-11T06:35:45;80983.50;;;-145.99;100.00
2875;BME280;1445;52.600;13.328;2024-01-11T06:38:10;80985.59;;;-145.99;100.00
2875;BME280;1445;52.600;13.328;2024-01-11T06:40:36;80989.81;;;-145.99;100.00
2875;BME280;1445;52.600;13.328;2024-01-11T06:43:01;80987.72;;;-145.99;100.00
2875;BME280;1445;52.600;13.328;2024-01-11T06:45:26;80958.28;;;-145.99;100.00
2875;BME280;1445;52.600;13.328;2024-01-11T06:47:51;80975.09;;;-145.99;100.00
2875;BME280;1445;52.600;13.328;2024-01-11T06:50:17;80973.00;;;-145.99;100.00
2875;BME280;1445;52.600;13.328;2024-01-11T06:52:42;80964.59;;;-145.99;100.00
2875;BME280;1445;52.600;13.328;2024-01-11T06:55:08;80960.38;;;-145.99;100.00
2875;BME280;1445;52.600;13.328;2024-01-11T06:57:33;80968.78;;;-145.99;100.00
2875;BME280;1445;52.600;13.328;2024-01-11T06:59:58;80954.06;;;-145.99;100.00
2875;BME280;1445;52.600;13.328;2024-01-11T07:02:24;80947.78;;;-145.99;100.00
2875;BME280;1445;52.600;13.328;2024-01-11T07:04:49;80947.78;;;-145.99;100.00
2875;BME280;1445;52.600;13.328;2024-01-11T07:07:15;80943.56;;;-145.99;100.00
2875;BME280;1445;52.600;13.328;2024-01-11T07:09:40;80945.66;;;-145.99;100.00
2875;BME280;1445;52.600;13.328;2024-01-11T07:12:05;80951.97;;;-145.99;100.00
2875;BME280;1445;52.600;13.328;2024-01-11T07:14:31;80945.66;;;-145.99;100.00
2875;BME280;1445;52.600;13.328;2024-01-11T07:16:57;80945.66;;;-145.99;100.00
2875;BME280;1445;52.600;13.328;2024-01-11T07:19:22;80924.66;;;-145.99;100.00
2875;BME280;1445;52.600;13.328;2024-01-11T07:21:47;80928.84;;;-145.99;100.00
2875;BME280;1445;52.600;13.328;2024-01-11T07:24:12;80905.72;;;-145.99;100.00
2875;BME280;1445;52.600;13.328;2024-01-11T07:26:38;80916.22;;;-145.99;100.00
2875;BME280;1445;52.600;13.328;2024-01-11T07:29:03;80909.94;;;-145.99;100.00
2875;BME280;1445;52.600;13.328;2024-01-11T07:31:28;80916.22;;;-145.99;100.00
2875;BME280;1445;52.600;13.328;2024-01-11T07:33:54;80909.94;;;-145.99;100.00
2875;BME280;1445;52.600;13.328;2024-01-11T07:36:19;80903.63;;;-145.99;100.00
2875;BME280;1445;52.600;13.328;2024-01-11T07:38:45;80897.31;;;-145.99;100.00
2875;BME280;1445;52.600;13.328;2024-01-11T07:41:10;80903.63;;;-145.99;100.00
2875;BME280;1445;52.600;13.328;2024-01-11T07:43:36;80884.69;;;-145.99;100.00
2875;BME280;1445;52.600;13.328;2024-01-11T07:46:01;80901.50;;;-145.99;100.00
2875;BME280;1445;52.600;13.328;2024-01-11T07:48:28;80888.91;;;-145.99;100.00
2875;BME280;1445;52.600;13.328;2024-01-11T07:50:54;80880.50;;;-145.99;100.00
2875;BME280;1445;52.600;13.328;2024-01-11T07:53:19;80872.09;;;-145.99;100.00
2875;BME280;1445;52.600;13.328;2024-01-11T07:55:44;80874.19;;;-145.99;100.00
2875;BME280;1445;52.600;13.328;2024-01-11T07:58:12;80859.47;;;-145.99;100.00
2875;BME280;1445;52.600;13.328;2024-01-11T08:00:38;80846.84;;;-145.99;100.00
2875;BME280;1445;52.600;13.328;2024-01-11T08:03:04;80853.16;;;-145.99;100.00
2875;BME280;1445;52.600;13.328;2024-01-11T08:05:29;80853.16;;;-145.99;100.00
2875;BME280;1445;52.600;13.328;2024-01-11T08:07:55;80851.06;;;-145.99;100.00
2875;BME280;1445;52.600;13.328;2024-01-11T08:10:21;80853.16;;;-145.99;100.00
2875;BME280;1445;52.600;13.328;2024-01-11T08:12:46;80846.84;;;-145.99;100.00
2875;BME280;1445;52.600;13.328;2024-01-11T08:15:11;80834.25;;;-145.99;100.00
2875;BME280;1445;52.600;13.328;2024-01-11T08:17:46;80840.56;;;-145.99;100.00
2875;BME280;1445;52.600;13.328;2024-01-11T08:20:11;80834.25;;;-145.99;100.00
2875;BME280;1445;52.600;13.328;2024-01-11T08:22:43;80819.53;;;-145.99;100.00
2875;BME280;1445;52.600;13.328;2024-01-11T08:25:09;80821.63;;;-145.99;100.00
2875;BME280;1445;52.600;13.328;2024-01-11T08:27:34;80798.50;;;-145.99;100.00
2875;BME280;1445;52.600;13.328;2024-01-11T08:30:00;80796.41;;;-145.99;100.00
2875;BME280;1445;52.600;13.328;2024-01-11T08:32:25;80802.72;;;-145.99;100.00
2875;BME280;1445;52.600;13.328;2024-01-11T08:34:51;80809.00;;;-145.99;100.00
2875;BME280;1445;52.600;13.328;2024-01-11T08:37:17;80800.59;;;-145.99;100.00
2875;BME280;1445;52.600;13.328;2024-01-11T08:39:42;80790.09;;;-145.99;100.00
2875;BME280;1445;52.600;13.328;2024-01-11T08:42:07;80792.19;;;-145.99;100.00
2875;BME280;1445;52.600;13.328;2024-01-11T08:44:32;80769.06;;;-145.99;100.00
2875;BME280;1445;52.600;13.328;2024-01-11T08:46:58;80775.38;;;-145.99;100.00
2875;BME280;1445;52.600;13.328;2024-01-11T08:49:24;80779.59;;;-145.99;100.00
2875;BME280;1445;52.600;13.328;2024-01-11T08:51:50;80758.56;;;-145.99;100.00
2875;BME280;1445;52.600;13.328;2024-01-11T08:54:15;80743.84;;;-145.99;100.00
2875;BME280;1445;52.600;13.328;2024-01-11T08:56:41;80754.34;;;-145.99;100.00
2875;BME280;1445;52.600;13.328;2024-01-11T08:59:06;80722.81;;;-145.99;100.00
2875;BME280;1445;52.600;13.328;2024-01-11T09:01:34;80706.00;;;-145.99;100.00
2875;BME280;1445;52.600;13.328;2024-01-11T09:04:00;80699.69;;;-145.99;100.00
2875;BME280;1445;52.600;13.328;2024-01-11T09:06:25;80695.50;;;-145.99;100.00
2875;BME280;1445;52.600;13.328;2024-01-11T09:08:51;80693.38;;;-145.99;100.00
2875;BME280;1445;52.600;13.328;2024-01-11T09:11:17;80676.56;;;-145.99;100.00
2875;BME280;1445;52.600;13.328;2024-01-11T09:13:42;80674.47;;;-145.99;100.00
2875;BME280;1445;52.600;13.328;2024-01-11T09:16:08;80666.06;;;-145.99;100.00
2875;BME280;1445;52.600;13.328;2024-01-11T09:18:34;80657.66;;;-145.99;100.00
2875;BME280;1445;52.600;13.328;2024-01-11T09:20:59;80647.13;;;-145.99;100.00
2875;BME280;1445;52.600;13.328;2024-01-11T09:23:24;80661.84;;;-145.99;100.00
2875;BME280;1445;52.600;13.328;2024-01-11T09:25:50;80657.66;;;-145.99;100.00
2875;BME280;1445;52.600;13.328;2024-01-11T09:28:15;80634.53;;;-145.99;100.00
2875;BME280;1445;52.600;13.328;2024-01-11T09:30:40;80663.97;;;-145.99;100.00
2875;BME280;1445;52.600;13.328;2024-01-11T09:33:06;80653.44;;;-145.99;100.00
2875;BME280;1445;52.600;13.328;2024-01-11T09:35:31;80653.44;;;-145.99;100.00
2875;BME280;1445;52.600;13.328;2024-01-11T09:37:57;80642.94;;;-145.99;100.00
2875;BME280;1445;52.600;13.328;2024-01-11T09:40:22;80647.13;;;-145.99;100.00
2875;BME280;1445;52.600;13.328;2024-01-11T09:42:47;80657.66;;;-145.99;100.00
2875;BME280;1445;52.600;13.328;2024-01-11T09:45:14;80661.84;;;-145.99;100.00
2875;BME280;1445;52.600;13.328;2024-01-11T09:47:45;80674.47;;;-145.99;100.00
2875;BME280;1445;52.600;13.328;2024-01-11T09:50:11;80653.44;;;-145.99;100.00
2875;BME280;1445;52.600;13.328;2024-01-11T09:52:42;80636.63;;;-145.99;100.00
2875;BME280;1445;52.600;13.328;2024-01-11T09:55:11;80621.91;;;-145.99;100.00
2875;BME280;1445;52.600;13.328;2024-01-11T09:57:36;80630.31;;;-145.99;100.00
2875;BME280;1445;52.600;13.328;2024-01-11T10:00:04;80634.53;;;-145.99;100.00
2875;BME280;1445;52.600;13.328;2024-01-11T10:02:32;80636.63;;;-145.99;100.00
2875;BME280;1445;52.600;13.328;2024-01-11T10:04:58;80636.63;;;-145.99;100.00
2875;BME280;1445;52.600;13.328;2024-01-11T10:07:23;80617.72;;;-145.99;100.00
2875;BME280;1445;52.600;13.328;2024-01-11T10:09:50;80619.81;;;-145.99;100.00
2875;BME280;1445;52.600;13.328;2024-01-11T10:12:15;80621.91;;;-145.99;100.00
2875;BME280;1445;52.600;13.328;2024-01-11T10:14:42;80611.41;;;-145.99;100.00
2875;BME280;1445;52.600;13.328;2024-01-11T10:17:07;80603.00;;;-145.99;100.00
2875;BME280;1445;52.600;13.328;2024-01-11T10:19:33;80565.16;;;-145.99;100.00
2875;BME280;1445;52.600;13.328;2024-01-11T10:21:58;80581.97;;;-145.99;100.00
2875;BME280;1445;52.600;13.328;2024-01-11T10:24:23;80569.38;;;-145.99;100.00
2875;BME280;1445;52.600;13.328;2024-01-11T10:26:51;80565.16;;;-145.99;100.00
2875;BME280;1445;52.600;13.328;2024-01-11T10:29:16;80552.53;;;-145.99;100.00
2875;BME280;1445;52.600;13.328;2024-01-11T10:31:43;80554.66;;;-145.99;100.00
2875;BME280;1445;52.600;13.328;2024-01-11T10:34:08;80575.66;;;-145.99;100.00
2875;BME280;1445;52.600;13.328;2024-01-11T10:36:33;80581.97;;;-145.99;100.00
2875;BME280;1445;52.600;13.328;2024-01-11T10:39:02;80588.28;;;-145.99;100.00
2875;BME280;1445;52.600;13.328;2024-01-11T10:41:31;80575.66;;;-145.99;100.00
2875;BME280;1445;52.600;13.328;2024-01-11T10:43:57;80577.78;;;-145.99;100.00
2875;BME280;1445;52.600;13.328;2024-01-11T10:46:23;80569.38;;;-145.99;100.00
2875;BME280;1445;52.600;13.328;2024-01-11T10:48:51;80567.25;;;-145.99;100.00
2875;BME280;1445;52.600;13.328;2024-01-11T10:51:20;80546.25;;;-145.99;100.00
2875;BME280;1445;52.600;13.328;2024-01-11T10:53:47;80556.75;;;-145.99;100.00
2875;BME280;1445;52.600;13.328;2024-01-11T10:56:15;80548.34;;;-145.99;100.00
2875;BME280;1445;52.600;13.328;2024-01-11T10:58:42;80544.13;;;-145.99;100.00
2875;BME280;1445;52.600;13.328;2024-01-11T11:01:11;80542.03;;;-145.99;100.00
2875;BME280;1445;52.600;13.328;2024-01-11T11:03:37;80535.72;;;-145.99;100.00
2875;BME280;1445;52.600;13.328;2024-01-11T11:06:04;80537.81;;;-145.99;100.00
2875;BME280;1445;52.600;13.328;2024-01-11T11:08:29;80537.81;;;-145.99;100.00
2875;BME280;1445;52.600;13.328;2024-01-11T11:10:55;80546.25;;;-145.99;100.00
2875;BME280;1445;52.600;13.328;2024-01-11T11:13:22;80560.94;;;-145.99;100.00
2875;BME280;1445;52.600;13.328;2024-01-11T11:15:48;80569.38;;;-145.99;100.00
2875;BME280;1445;52.600;13.328;2024-01-11T11:18:16;80563.06;;;-145.99;100.00
2875;BME280;1445;52.600;13.328;2024-01-11T11:20:43;80563.06;;;-145.99;100.00
2875;BME280;1445;52.600;13.328;2024-01-11T11:23:09;80554.66;;;-145.99;100.00
2875;BME280;1445;52.600;13.328;2024-01-11T11:25:39;80560.94;;;-145.99;100.00
2875;BME280;1445;52.600;13.328;2024-01-11T11:28:05;80556.75;;;-145.99;100.00
2875;BME280;1445;52.600;13.328;2024-01-11T11:30:30;80588.28;;;-145.99;100.00
2875;BME280;1445;52.600;13.328;2024-01-11T11:32:56;80586.19;;;-145.99;100.00
2875;BME280;1445;52.600;13.328;2024-01-11T11:35:25;80594.59;;;-145.99;100.00
2875;BME280;1445;52.600;13.328;2024-01-11T11:37:56;80581.97;;;-145.99;100.00
2875;BME280;1445;52.600;13.328;2024-01-11T11:40:31;80575.66;;;-145.99;100.00
2875;BME280;1445;52.600;13.328;2024-01-11T11:42:56;80565.16;;;-145.99;100.00
2875;BME280;1445;52.600;13.328;2024-01-11T11:45:25;80550.44;;;-145.99;100.00
2875;BME280;1445;52.600;13.328;2024-01-11T11:47:51;80548.34;;;-145.99;100.00
2875;BME280;1445;52.600;13.328;2024-01-11T11:50:17;80535.72;;;-145.99;100.00
2875;BME280;1445;52.600;13.328;2024-01-11T11:52:46;80550.44;;;-145.99;100.00
2875;BME280;1445;52.600;13.328;2024-01-11T11:55:18;80554.66;;;-145.99;100.00
2875;BME280;1445;52.600;13.328;2024-01-11T11:57:44;80531.53;;;-145.99;100.00
2875;BME280;1445;52.600;13.328;2024-01-11T12:00:10;80518.91;;;-145.99;100.00
2875;BME280;1445;52.600;13.328;2024-01-11T12:02:36;80531.53;;;-145.99;100.00
2875;BME280;1445;52.600;13.328;2024-01-11T12:05:02;80523.13;;;-145.99;100.00
2875;BME280;1445;52.600;13.328;2024-01-11T12:07:29;80502.09;;;-145.99;100.00
2875;BME280;1445;52.600;13.328;2024-01-11T12:09:54;80508.41;;;-145.99;100.00
2875;BME280;1445;52.600;13.328;2024-01-11T12:12:19;80508.41;;;-145.99;100.00
2875;BME280;1445;52.600;13.328;2024-01-11T12:14:46;80514.72;;;-145.99;100.00
2875;BME280;1445;52.600;13.328;2024-01-11T12:17:12;80518.91;;;-145.99;100.00
2875;BME280;1445;52.600;13.328;2024-01-11T12:19:37;80510.50;;;-145.99;100.00
2875;BME280;1445;52.600;13.328;2024-01-11T12:22:02;80508.41;;;-145.99;100.00
2875;BME280;1445;52.600;13.328;2024-01-11T12:24:27;80502.09;;;-145.99;100.00
2875;BME280;1445;52.600;13.328;2024-01-11T12:26:55;80502.09;;;-145.99;100.00
2875;BME280;1445;52.600;13.328;2024-01-11T12:29:20;80487.38;;;-145.99;100.00
2875;BME280;1445;52.600;13.328;2024-01-11T12:31:46;80476.88;;;-145.99;100.00
2875;BME280;1445;52.600;13.328;2024-01-11T12:34:11;80470.56;;;-145.99;100.00